createdAt,value
2018-03-08T00:01:00.677Z,84.56
2018-03-08T00:03:29.000Z,84.32
2018-03-08T00:05:57.340Z,84.04
2018-03-08T00:08:25.624Z,84.20
2018-03-08T00:10:54.181Z,84.03
2018-03-08T00:13:22.480Z,84.01
2018-03-08T00:15:50.867Z,84.06
2018-03-08T00:18:19.141Z,83.97
2018-03-08T00:20:47.445Z,83.97
2018-03-08T00:23:18.553Z,84.14
2018-03-08T00:25:46.944Z,84.06
2018-03-08T00:28:16.007Z,84.26
2018-03-08T00:30:44.336Z,84.29
2018-03-08T00:33:12.798Z,84.40
2018-03-08T00:35:41.150Z,84.30
2018-03-08T00:38:09.651Z,84.20
2018-03-08T00:40:37.945Z,84.16
2018-03-08T00:43:06.484Z,84.28
2018-03-08T00:45:34.771Z,84.20
2018-03-08T00:48:03.110Z,84.26
2018-03-08T00:50:31.429Z,84.38
2018-03-08T00:52:59.805Z,84.21
2018-03-08T00:55:28.233Z,84.27
2018-03-08T00:57:56.572Z,84.30
2018-03-08T01:00:24.914Z,84.27
2018-03-08T01:02:55.256Z,84.22
2018-03-08T01:05:23.593Z,84.24
2018-03-08T01:07:52.046Z,84.32
2018-03-08T01:10:24.089Z,84.27
2018-03-08T01:12:54.567Z,84.28
2018-03-08T01:15:22.930Z,84.39
2018-03-08T01:17:51.217Z,84.58
2018-03-08T01:20:19.687Z,84.68
2018-03-08T01:22:48.005Z,84.71
2018-03-08T01:25:16.305Z,84.79
2018-03-08T01:27:44.633Z,84.80
2018-03-08T01:30:13.086Z,84.84
2018-03-08T01:32:41.404Z,84.92
2018-03-08T01:35:09.745Z,84.94
2018-03-08T01:37:38.204Z,85.00
2018-03-08T01:40:06.492Z,85.10
2018-03-08T01:42:34.915Z,85.32
2018-03-08T01:45:03.254Z,85.36
2018-03-08T01:47:31.751Z,85.44
2018-03-08T01:50:00.122Z,85.62
2018-03-08T01:52:28.717Z,85.61
2018-03-08T01:54:57.793Z,85.78
2018-03-08T01:57:26.231Z,85.88
2018-03-08T01:59:54.529Z,85.84
2018-03-08T02:02:23.262Z,85.85
2018-03-08T02:04:51.597Z,85.93
2018-03-08T02:07:19.896Z,86.24
2018-03-08T02:09:51.660Z,86.08
2018-03-08T02:12:19.994Z,86.08
2018-03-08T02:14:48.317Z,86.06
2018-03-08T02:17:20.822Z,86.08
2018-03-08T02:19:49.176Z,86.12
2018-03-08T02:22:17.510Z,86.22
2018-03-08T02:24:46.015Z,86.20
2018-03-08T02:27:14.384Z,86.15
2018-03-08T02:29:44.485Z,86.08
2018-03-08T02:32:14.570Z,85.85
2018-03-08T02:34:42.911Z,85.79
2018-03-08T02:37:11.225Z,85.63
2018-03-08T02:39:39.573Z,85.55
2018-03-08T02:42:07.952Z,85.63
2018-03-08T02:44:36.233Z,85.57
2018-03-08T02:47:04.747Z,85.65
2018-03-08T02:49:33.056Z,85.64
2018-03-08T02:52:01.415Z,85.79
2018-03-08T02:54:31.461Z,85.77
2018-03-08T02:56:59.825Z,85.64
2018-03-08T02:59:28.169Z,85.47
2018-03-08T03:01:56.519Z,85.43
2018-03-08T03:04:25.733Z,85.48
2018-03-08T03:06:55.660Z,85.45
2018-03-08T03:09:26.802Z,85.49
2018-03-08T03:11:55.188Z,85.57
2018-03-08T03:14:25.273Z,85.77
2018-03-08T03:16:53.760Z,85.64
2018-03-08T03:19:22.256Z,85.74
2018-03-08T03:21:50.606Z,85.75
2018-03-08T03:24:18.884Z,85.77
2018-03-08T03:26:47.448Z,85.80
2018-03-08T03:29:15.804Z,85.85
2018-03-08T03:31:44.111Z,85.81
2018-03-08T03:34:12.396Z,85.71
2018-03-08T03:36:40.696Z,85.60
2018-03-08T03:39:09.025Z,85.53
2018-03-08T03:41:42.578Z,85.40
2018-03-08T03:44:10.915Z,85.40
2018-03-08T03:46:40.086Z,85.52
2018-03-08T03:49:08.379Z,85.57
2018-03-08T03:51:36.688Z,85.53
2018-03-08T03:54:05.168Z,85.57
2018-03-08T03:56:33.827Z,85.65
2018-03-08T03:59:02.810Z,85.52
2018-03-08T04:01:31.110Z,85.46
2018-03-08T04:03:59.472Z,85.55
2018-03-08T04:06:27.671Z,85.40
2018-03-08T04:08:55.934Z,85.33
2018-03-08T04:11:24.166Z,85.25
2018-03-08T04:13:52.375Z,85.24
2018-03-08T04:16:20.594Z,85.22
2018-03-08T04:18:48.823Z,85.20
2018-03-08T04:21:17.026Z,85.12
2018-03-08T04:23:45.262Z,85.20
2018-03-08T04:26:13.539Z,85.36
2018-03-08T04:28:41.779Z,85.25
2018-03-08T04:31:10.124Z,85.24
2018-03-08T04:33:38.315Z,85.31
2018-03-08T04:36:06.565Z,85.24
2018-03-08T04:38:34.763Z,85.42
2018-03-08T04:41:03.018Z,85.33
2018-03-08T04:43:31.227Z,85.41
2018-03-08T04:45:59.464Z,85.54
2018-03-08T04:48:27.698Z,85.68
2018-03-08T04:50:55.934Z,85.72
2018-03-08T04:53:24.166Z,85.76
2018-03-08T04:55:52.407Z,85.75
2018-03-08T04:58:20.625Z,85.77
2018-03-08T05:00:48.873Z,85.73
2018-03-08T05:03:17.115Z,85.80
2018-03-08T05:05:45.319Z,85.76
2018-03-08T05:10:47.979Z,85.88
2018-03-08T05:13:16.211Z,85.95
2018-03-08T05:15:44.496Z,86.06
2018-03-08T05:18:12.707Z,86.09
2018-03-08T05:20:40.914Z,86.25
2018-03-08T05:23:09.175Z,86.21
2018-03-08T05:25:37.373Z,86.19
2018-03-08T05:28:05.565Z,86.05
2018-03-08T05:30:33.810Z,85.98
2018-03-08T05:33:02.124Z,86.10
2018-03-08T05:35:30.420Z,86.14
2018-03-08T05:37:58.670Z,86.15
2018-03-08T05:40:26.883Z,86.14
2018-03-08T05:42:55.125Z,86.16
2018-03-08T05:45:23.388Z,86.24
2018-03-08T05:47:51.647Z,86.23
2018-03-08T05:50:19.860Z,86.24
2018-03-08T05:52:48.127Z,86.27
2018-03-08T05:55:16.356Z,86.47
2018-03-08T05:57:44.570Z,86.40
2018-03-08T06:00:12.770Z,86.51
2018-03-08T06:02:41.039Z,86.53
2018-03-08T06:05:09.232Z,86.59
2018-03-08T06:07:37.470Z,86.76
2018-03-08T06:10:05.703Z,86.74
2018-03-08T06:12:33.934Z,86.64
2018-03-08T06:15:02.381Z,86.76
2018-03-08T06:17:30.674Z,87.37
2018-03-08T06:19:58.899Z,88.31
2018-03-08T06:22:27.194Z,89.29
2018-03-08T06:24:55.429Z,89.83
2018-03-08T06:27:23.711Z,90.33
2018-03-08T06:29:51.954Z,91.08
2018-03-08T06:32:20.130Z,91.55
2018-03-08T06:34:48.392Z,91.81
2018-03-08T06:37:16.619Z,92.20
2018-03-08T06:39:45.149Z,92.59
2018-03-08T06:42:13.347Z,92.66
2018-03-08T06:44:41.629Z,92.83
2018-03-08T06:47:09.839Z,92.80
2018-03-08T06:49:38.101Z,92.87
2018-03-08T06:52:06.324Z,92.86
2018-03-08T06:54:34.599Z,93.02
2018-03-08T06:57:02.870Z,92.98
2018-03-08T06:59:31.100Z,93.01
2018-03-08T07:01:59.395Z,93.05
2018-03-08T07:04:27.723Z,92.99
2018-03-08T07:06:56.017Z,93.01
2018-03-08T07:09:24.273Z,92.96
2018-03-08T07:11:52.524Z,92.95
2018-03-08T07:14:20.781Z,92.93
2018-03-08T07:16:49.039Z,92.86
2018-03-08T07:19:17.263Z,92.80
2018-03-08T07:21:45.475Z,92.82
2018-03-08T07:24:13.705Z,92.75
2018-03-08T07:26:41.933Z,92.58
2018-03-08T07:29:10.207Z,92.47
2018-03-08T07:31:38.433Z,92.57
2018-03-08T07:34:06.699Z,92.75
2018-03-08T07:36:34.942Z,92.59
2018-03-08T07:39:03.196Z,92.14
2018-03-08T07:41:31.392Z,91.48
2018-03-08T07:43:59.678Z,91.34
2018-03-08T07:46:27.886Z,90.51
2018-03-08T07:48:56.183Z,90.00
2018-03-08T07:51:24.399Z,89.73
2018-03-08T07:53:52.676Z,88.83
2018-03-08T07:56:20.922Z,88.25
2018-03-08T07:58:49.131Z,87.65
2018-03-08T08:01:17.377Z,86.90
2018-03-08T08:03:45.583Z,86.78
2018-03-08T08:06:25.665Z,85.36
2018-03-08T08:09:05.543Z,84.46
2018-03-08T08:11:33.773Z,83.64
2018-03-08T08:14:01.997Z,82.58
2018-03-08T08:16:30.283Z,82.48
2018-03-08T08:18:58.504Z,82.69
2018-03-08T08:21:26.752Z,82.17
2018-03-08T08:23:54.991Z,82.00
2018-03-08T08:26:23.466Z,81.56
2018-03-08T08:28:51.704Z,80.57
2018-03-08T08:31:19.938Z,80.56
2018-03-08T08:33:48.170Z,79.64
2018-03-08T08:36:16.429Z,78.69
2018-03-08T08:38:44.679Z,78.58
2018-03-08T08:41:12.898Z,78.23
2018-03-08T08:43:41.137Z,77.41
2018-03-08T08:46:09.348Z,77.30
2018-03-08T08:48:37.592Z,76.82
2018-03-08T08:51:05.838Z,76.74
2018-03-08T08:53:34.072Z,77.24
2018-03-08T08:56:02.318Z,76.32
2018-03-08T08:58:30.975Z,75.42
2018-03-08T09:00:59.174Z,75.43
2018-03-08T09:03:27.404Z,74.36
2018-03-08T09:05:55.618Z,73.37
2018-03-08T09:08:23.832Z,71.77
2018-03-08T09:10:52.072Z,72.50
2018-03-08T09:13:20.316Z,72.08
2018-03-08T09:15:48.575Z,71.55
2018-03-08T09:18:16.795Z,70.37
2018-03-08T09:20:45.056Z,69.82
2018-03-08T09:23:13.264Z,69.52
2018-03-08T09:25:41.809Z,68.93
2018-03-08T09:28:10.062Z,67.79
2018-03-08T09:30:38.378Z,67.56
2018-03-08T09:33:06.678Z,67.33
2018-03-08T09:35:34.950Z,66.17
2018-03-08T09:38:03.212Z,66.04
2018-03-08T09:40:31.425Z,65.43
2018-03-08T09:42:59.646Z,64.66
2018-03-08T09:45:27.854Z,62.86
2018-03-08T09:47:56.100Z,62.99
2018-03-08T09:50:24.415Z,62.28
2018-03-08T09:52:52.642Z,60.85
2018-03-08T09:55:20.835Z,61.31
2018-03-08T09:57:49.593Z,61.23
2018-03-08T10:00:17.822Z,61.88
2018-03-08T10:02:46.138Z,61.06
2018-03-08T10:05:14.368Z,60.25
2018-03-08T10:07:42.601Z,60.87
2018-03-08T10:10:10.874Z,60.11
2018-03-08T10:12:39.078Z,60.02
2018-03-08T10:15:07.352Z,60.26
2018-03-08T10:17:35.583Z,61.27
2018-03-08T10:20:03.810Z,60.72
2018-03-08T10:22:32.022Z,59.13
2018-03-08T10:25:00.290Z,59.76
2018-03-08T10:27:28.527Z,58.10
2018-03-08T10:29:56.770Z,59.03
2018-03-08T10:32:24.982Z,57.37
2018-03-08T10:34:53.215Z,56.27
2018-03-08T10:37:21.422Z,56.88
2018-03-08T10:39:49.704Z,56.87
2018-03-08T10:42:17.912Z,56.00
2018-03-08T10:44:46.130Z,56.69
2018-03-08T10:47:14.370Z,55.43
2018-03-08T10:49:42.596Z,55.58
2018-03-08T10:52:10.840Z,55.32
2018-03-08T10:54:39.056Z,54.89
2018-03-08T10:57:07.296Z,55.20
2018-03-08T10:59:35.495Z,53.43
2018-03-08T11:02:03.791Z,55.68
2018-03-08T11:04:35.944Z,54.04
2018-03-08T11:07:04.238Z,56.02
2018-03-08T11:09:32.446Z,54.78
2018-03-08T11:12:00.686Z,55.05
2018-03-08T11:14:28.918Z,55.46
2018-03-08T11:16:57.154Z,54.82
2018-03-08T11:19:25.497Z,54.75
2018-03-08T11:21:53.698Z,54.68
2018-03-08T11:24:21.941Z,53.99
2018-03-08T11:26:50.175Z,55.13
2018-03-08T11:29:18.858Z,55.28
2018-03-08T11:31:47.331Z,55.40
2018-03-08T11:34:15.746Z,54.72
2018-03-08T11:36:44.084Z,54.31
2018-03-08T11:39:12.504Z,54.52
2018-03-08T11:41:40.964Z,52.88
2018-03-08T11:44:09.217Z,53.06
2018-03-08T11:46:37.537Z,52.29
2018-03-08T11:49:06.060Z,51.19
2018-03-08T11:51:34.327Z,52.93
2018-03-08T11:54:02.593Z,51.25
2018-03-08T11:56:30.841Z,51.43
2018-03-08T11:58:59.097Z,52.57
2018-03-08T12:01:27.367Z,51.65
2018-03-08T12:03:55.623Z,51.79
2018-03-08T12:06:24.003Z,49.01
2018-03-08T12:08:52.233Z,50.09
2018-03-08T12:11:20.536Z,49.50
2018-03-08T12:13:48.777Z,48.93
2018-03-08T12:16:17.024Z,48.12
2018-03-08T12:18:45.246Z,47.10
2018-03-08T12:21:13.494Z,48.77
2018-03-08T12:23:41.710Z,49.52
2018-03-08T12:26:09.965Z,47.85
2018-03-08T12:28:38.199Z,46.58
2018-03-08T12:31:06.462Z,47.94
2018-03-08T12:33:34.685Z,48.50
2018-03-08T12:36:02.923Z,48.06
2018-03-08T12:38:31.204Z,48.93
2018-03-08T12:40:59.442Z,47.45
2018-03-08T12:43:27.707Z,47.96
2018-03-08T12:45:55.951Z,46.99
2018-03-08T12:48:24.209Z,45.82
2018-03-08T12:50:52.437Z,45.51
2018-03-08T12:53:20.683Z,45.85
2018-03-08T12:55:48.890Z,46.78
2018-03-08T12:58:17.109Z,47.14
2018-03-08T13:00:45.415Z,45.69
2018-03-08T13:03:13.664Z,46.26
2018-03-08T13:05:41.929Z,45.81
2018-03-08T13:08:10.139Z,46.08
2018-03-08T13:10:38.392Z,46.55
2018-03-08T13:13:06.663Z,46.81
2018-03-08T13:15:34.884Z,45.97
2018-03-08T13:18:03.131Z,45.88
2018-03-08T13:20:31.434Z,47.19
2018-03-08T13:22:59.655Z,46.19
2018-03-08T13:25:27.930Z,45.35
2018-03-08T13:27:56.187Z,44.43
2018-03-08T13:30:24.463Z,46.02
2018-03-08T13:32:52.687Z,45.67
2018-03-08T13:35:21.169Z,45.48
2018-03-08T13:37:49.427Z,46.62
2018-03-08T13:40:17.673Z,45.73
2018-03-08T13:42:45.894Z,46.33
2018-03-08T13:45:14.182Z,47.29
2018-03-08T13:47:42.469Z,46.30
2018-03-08T13:50:10.682Z,45.40
2018-03-08T13:52:38.930Z,45.66
2018-03-08T13:55:07.145Z,45.68
2018-03-08T13:57:35.407Z,45.51
2018-03-08T14:00:03.619Z,46.87
2018-03-08T14:02:31.842Z,46.93
2018-03-08T14:05:00.830Z,46.16
2018-03-08T14:07:29.069Z,46.66
2018-03-08T14:09:57.301Z,46.77
2018-03-08T14:12:25.517Z,46.60
2018-03-08T14:14:53.749Z,47.01
2018-03-08T14:17:21.998Z,45.53
2018-03-08T14:19:50.249Z,46.63
2018-03-08T14:22:18.492Z,46.90
2018-03-08T14:24:46.722Z,46.01
2018-03-08T14:27:14.940Z,46.79
2018-03-08T14:29:43.242Z,45.45
2018-03-08T14:32:11.494Z,45.01
2018-03-08T14:34:39.708Z,45.00
2018-03-08T14:37:07.951Z,44.24
2018-03-08T14:39:36.243Z,44.05
2018-03-08T14:42:04.499Z,43.48
2018-03-08T14:44:32.710Z,42.89
2018-03-08T14:47:00.973Z,42.32
2018-03-08T14:49:29.250Z,42.08
2018-03-08T14:51:57.527Z,43.18
2018-03-08T14:54:25.867Z,42.73
2018-03-08T14:56:54.124Z,41.18
2018-03-08T14:59:22.405Z,41.29
2018-03-08T15:01:50.609Z,39.98
2018-03-08T15:04:18.880Z,40.41
2018-03-08T15:06:47.106Z,40.02
2018-03-08T15:09:16.195Z,40.69
2018-03-08T15:11:44.436Z,40.64
2018-03-08T15:14:12.681Z,42.32
2018-03-08T15:16:40.954Z,42.40
2018-03-08T15:19:09.226Z,41.95
2018-03-08T15:21:37.465Z,42.91
2018-03-08T15:24:05.698Z,42.22
2018-03-08T15:26:33.938Z,41.81
2018-03-08T15:29:02.182Z,42.26
2018-03-08T15:31:30.422Z,43.68
2018-03-08T15:33:58.677Z,42.31
2018-03-08T15:36:26.933Z,43.23
2018-03-08T15:38:55.216Z,43.69
2018-03-08T15:41:23.563Z,43.69
2018-03-08T15:43:51.985Z,44.22
2018-03-08T15:46:20.226Z,46.02
2018-03-08T15:48:48.452Z,44.75
2018-03-08T15:51:16.700Z,45.89
2018-03-08T15:53:44.922Z,45.20
2018-03-08T15:56:13.188Z,45.10
2018-03-08T15:58:41.437Z,45.76
2018-03-08T16:01:09.694Z,45.95
2018-03-08T16:03:37.923Z,46.60
2018-03-08T16:06:06.124Z,46.61
2018-03-08T16:08:46.338Z,46.65
2018-03-08T16:11:14.637Z,46.53
2018-03-08T16:13:42.978Z,47.01
2018-03-08T16:16:11.218Z,46.89
2018-03-08T16:18:39.492Z,46.78
2018-03-08T16:21:07.712Z,47.31
2018-03-08T16:23:35.952Z,48.07
2018-03-08T16:26:04.374Z,48.39
2018-03-08T16:28:32.651Z,47.96
2018-03-08T16:31:00.878Z,48.16
2018-03-08T16:33:29.114Z,48.09
2018-03-08T16:35:57.365Z,48.55
2018-03-08T16:38:25.594Z,48.78
2018-03-08T16:40:53.827Z,48.18
2018-03-08T16:43:22.088Z,48.84
2018-03-08T16:45:50.331Z,48.94
2018-03-08T16:48:18.556Z,48.57
2018-03-08T16:50:46.795Z,49.46
2018-03-08T16:53:14.995Z,49.67
2018-03-08T16:55:43.252Z,50.44
2018-03-08T16:58:11.476Z,50.30
2018-03-08T17:00:39.757Z,50.56
2018-03-08T17:03:07.994Z,50.59
2018-03-08T17:05:36.231Z,51.36
2018-03-08T17:08:04.488Z,51.34
2018-03-08T17:10:32.806Z,51.57
2018-03-08T17:13:01.116Z,52.16
2018-03-08T17:15:29.331Z,52.36
2018-03-08T17:17:57.584Z,53.00
2018-03-08T17:20:25.816Z,52.93
2018-03-08T17:22:54.048Z,53.32
2018-03-08T17:25:22.346Z,53.90
2018-03-08T17:27:50.587Z,53.75
2018-03-08T17:30:18.835Z,54.02
2018-03-08T17:32:47.036Z,54.69
2018-03-08T17:35:15.286Z,54.20
2018-03-08T17:37:43.534Z,54.10
2018-03-08T17:40:11.806Z,54.22
2018-03-08T17:42:40.101Z,54.50
2018-03-08T17:45:08.346Z,54.60
2018-03-08T17:47:36.608Z,54.89
2018-03-08T17:50:04.798Z,55.06
2018-03-08T17:52:33.043Z,55.36
2018-03-08T17:55:01.550Z,55.12
2018-03-08T17:57:29.837Z,55.13
2018-03-08T17:59:58.140Z,53.99
2018-03-08T18:02:26.306Z,54.10
2018-03-08T18:04:54.572Z,54.38
2018-03-08T18:07:22.776Z,54.73
2018-03-08T18:09:51.028Z,54.69
2018-03-08T18:12:19.264Z,54.92
2018-03-08T18:14:47.471Z,56.16
2018-03-08T18:17:15.727Z,57.51
2018-03-08T18:19:43.958Z,58.29
2018-03-08T18:22:12.206Z,58.75
2018-03-08T18:24:40.474Z,57.92
2018-03-08T18:27:08.759Z,56.96
2018-03-08T18:29:36.973Z,57.01
2018-03-08T18:32:05.199Z,56.36
2018-03-08T18:34:33.568Z,56.27
2018-03-08T18:37:01.872Z,56.03
2018-03-08T18:39:31.455Z,55.59
2018-03-08T18:41:59.840Z,56.07
2018-03-08T18:44:28.214Z,58.13
2018-03-08T18:46:56.472Z,62.76
2018-03-08T18:49:24.759Z,62.77
2018-03-08T18:51:52.981Z,63.10
2018-03-08T18:54:21.266Z,64.06
2018-03-08T18:56:49.581Z,63.75
2018-03-08T18:59:18.102Z,64.33
2018-03-08T19:01:46.418Z,64.45
2018-03-08T19:04:14.643Z,62.94
2018-03-08T19:06:43.833Z,62.87
2018-03-08T19:09:12.084Z,63.34
2018-03-08T19:11:40.468Z,64.65
2018-03-08T19:14:08.675Z,65.37
2018-03-08T19:16:36.933Z,66.03
2018-03-08T19:19:05.193Z,66.81
2018-03-08T19:21:33.445Z,67.41
2018-03-08T19:24:01.799Z,67.35
2018-03-08T19:26:30.216Z,67.88
2018-03-08T19:28:58.495Z,68.15
2018-03-08T19:31:26.783Z,68.38
2018-03-08T19:33:55.023Z,68.35
2018-03-08T19:36:23.294Z,68.01
2018-03-08T19:38:51.594Z,68.08
2018-03-08T19:41:20.084Z,68.02
2018-03-08T19:43:48.377Z,68.27
2018-03-08T19:46:16.636Z,68.24
2018-03-08T19:48:44.910Z,67.92
2018-03-08T19:51:13.169Z,68.12
2018-03-08T19:53:41.439Z,67.91
2018-03-08T19:56:09.746Z,68.06
2018-03-08T19:58:38.086Z,66.40
2018-03-08T20:01:06.377Z,66.00
2018-03-08T20:03:34.775Z,67.69
2018-03-08T20:06:02.984Z,68.08
2018-03-08T20:08:31.226Z,69.09
2018-03-08T20:10:59.516Z,69.74
2018-03-08T20:13:28.262Z,69.39
2018-03-08T20:15:56.547Z,70.46
2018-03-08T20:18:24.805Z,70.72
2018-03-08T20:20:53.143Z,71.89
2018-03-08T20:23:21.579Z,71.94
2018-03-08T20:25:49.872Z,72.39
2018-03-08T20:28:18.102Z,73.07
2018-03-08T20:30:46.620Z,73.84
2018-03-08T20:33:14.855Z,74.26
2018-03-08T20:35:43.124Z,74.43
2018-03-08T20:38:11.440Z,74.20
2018-03-08T20:40:39.686Z,74.13
2018-03-08T20:43:08.008Z,73.91
2018-03-08T20:45:36.524Z,73.66
2018-03-08T20:48:04.759Z,73.93
2018-03-08T20:50:32.978Z,73.73
2018-03-08T20:53:01.264Z,73.66
2018-03-08T20:55:29.537Z,73.73
2018-03-08T20:57:57.799Z,74.09
2018-03-08T21:00:26.152Z,74.17
2018-03-08T21:02:54.421Z,74.74
2018-03-08T21:05:22.678Z,75.16
2018-03-08T21:07:50.950Z,75.59
2018-03-08T21:10:19.183Z,75.44
2018-03-08T21:12:47.467Z,75.84
2018-03-08T21:15:15.704Z,75.86
2018-03-08T21:17:43.992Z,76.09
2018-03-08T21:20:12.228Z,76.34
2018-03-08T21:22:40.704Z,76.38
2018-03-08T21:25:08.978Z,76.36
2018-03-08T21:27:37.255Z,76.62
2018-03-08T21:30:05.511Z,76.77
2018-03-08T21:32:33.849Z,76.41
2018-03-08T21:35:02.184Z,76.33
2018-03-08T21:37:30.419Z,76.22
2018-03-08T21:39:58.798Z,75.86
2018-03-08T21:42:27.228Z,75.86
2018-03-08T21:44:55.804Z,75.88
2018-03-08T21:47:24.245Z,75.82
2018-03-08T21:49:52.492Z,75.90
2018-03-08T21:52:20.717Z,76.17
2018-03-08T21:54:48.969Z,75.95
2018-03-08T21:57:17.483Z,76.06
2018-03-08T21:59:45.701Z,76.60
2018-03-08T22:02:13.941Z,75.95
2018-03-08T22:04:42.171Z,75.07
2018-03-08T22:07:10.493Z,74.17
2018-03-08T22:09:38.717Z,73.61
2018-03-08T22:12:06.970Z,73.01
2018-03-08T22:14:35.216Z,72.56
2018-03-08T22:17:03.459Z,71.89
2018-03-08T22:19:31.684Z,71.82
2018-03-08T22:21:59.950Z,71.43
2018-03-08T22:24:28.177Z,71.29
2018-03-08T22:26:56.467Z,71.04
2018-03-08T22:29:24.681Z,70.53
2018-03-08T22:31:52.930Z,70.30
2018-03-08T22:34:21.167Z,69.97
2018-03-08T22:36:50.113Z,69.79
2018-03-08T22:39:19.020Z,69.60
2018-03-08T22:41:47.291Z,69.03
2018-03-08T22:44:15.519Z,70.09
2018-03-08T22:46:43.724Z,70.38
2018-03-08T22:49:11.985Z,70.12
2018-03-08T22:51:40.242Z,70.01
2018-03-08T22:54:08.496Z,69.87
2018-03-08T22:56:36.744Z,69.50
2018-03-08T22:59:05.025Z,68.78
2018-03-08T23:04:54.905Z,67.75
2018-03-08T23:07:23.242Z,67.31
2018-03-08T23:09:51.723Z,66.70
2018-03-08T23:12:20.038Z,66.53
2018-03-08T23:14:48.384Z,66.30
2018-03-08T23:17:16.744Z,65.77
2018-03-08T23:19:46.062Z,65.60
2018-03-08T23:22:14.361Z,65.65
2018-03-08T23:24:44.646Z,65.61
2018-03-08T23:27:13.845Z,65.55
2018-03-08T23:29:42.216Z,65.66
2018-03-08T23:32:12.467Z,65.62
2018-03-08T23:34:43.171Z,65.72
2018-03-08T23:37:11.500Z,65.63
2018-03-08T23:39:41.473Z,65.92
2018-03-08T23:42:09.894Z,66.64
2018-03-08T23:44:40.712Z,66.84
2018-03-08T23:47:09.071Z,66.73
2018-03-08T23:49:37.367Z,66.14
2018-03-08T23:52:05.672Z,65.84
2018-03-08T23:54:34.765Z,65.49
2018-03-08T23:57:03.094Z,65.33
2018-03-08T23:59:31.427Z,64.92
